sensor_id;sensor_type;location;lat;lon;timestamp;P1;durP1;ratioP1;P2;durP2;ratioP2
75016;SDS011;63577;39.766;2.720;2023-04-03T00:01:12;4.50;;;1.00;;
75016;SDS011;63577;39.766;2.720;2023-04-03T00:03:38;5.40;;;1.00;;
75016;SDS011;63577;39.766;2.720;2023-04-03T00:06:03;6.00;;;1.10;;
75016;SDS011;63577;39.766;2.720;2023-04-03T00:08:31;4.30;;;0.80;;
75016;SDS011;63577;39.766;2.720;2023-04-03T00:10:57;4.70;;;0.70;;
75016;SDS011;63577;39.766;2.720;2023-04-03T00:13:23;5.50;;;0.80;;
75016;SDS011;63577;39.766;2.720;2023-04-03T00:15:48;6.10;;;1.00;;
75016;SDS011;63577;39.766;2.720;2023-04-03T00:18:14;4.60;;;0.80;;
75016;SDS011;63577;39.766;2.720;2023-04-03T00:20:40;3.70;;;0.90;;
75016;SDS011;63577;39.766;2.720;2023-04-03T00:23:05;3.70;;;0.80;;
75016;SDS011;63577;39.766;2.720;2023-04-03T00:25:31;3.40;;;0.80;;
75016;SDS011;63577;39.766;2.720;2023-04-03T00:27:56;6.90;;;1.80;;
75016;SDS011;63577;39.766;2.720;2023-04-03T00:30:21;4.40;;;0.90;;
75016;SDS011;63577;39.766;2.720;2023-04-03T00:32:47;7.60;;;0.90;;
75016;SDS011;63577;39.766;2.720;2023-04-03T00:35:13;4.20;;;1.00;;
75016;SDS011;63577;39.766;2.720;2023-04-03T00:37:41;4.90;;;0.90;;
75016;SDS011;63577;39.766;2.720;2023-04-03T00:40:07;4.80;;;0.80;;
75016;SDS011;63577;39.766;2.720;2023-04-03T00:42:33;7.10;;;1.10;;
75016;SDS011;63577;39.766;2.720;2023-04-03T00:47:25;4.40;;;0.80;;
75016;SDS011;63577;39.766;2.720;2023-04-03T00:49:51;4.20;;;0.80;;
75016;SDS011;63577;39.766;2.720;2023-04-03T00:52:17;6.80;;;1.30;;
75016;SDS011;63577;39.766;2.720;2023-04-03T00:54:44;5.20;;;0.80;;
75016;SDS011;63577;39.766;2.720;2023-04-03T00:57:11;8.50;;;0.80;;
75016;SDS011;63577;39.766;2.720;2023-04-03T00:59:38;5.00;;;0.70;;
75016;SDS011;63577;39.766;2.720;2023-04-03T01:02:05;6.80;;;0.90;;
75016;SDS011;63577;39.766;2.720;2023-04-03T01:04:35;5.30;;;1.00;;
75016;SDS011;63577;39.766;2.720;2023-04-03T01:07:06;6.80;;;1.00;;
75016;SDS011;63577;39.766;2.720;2023-04-03T01:09:32;4.10;;;0.80;;
75016;SDS011;63577;39.766;2.720;2023-04-03T01:14:42;4.20;;;0.80;;
75016;SDS011;63577;39.766;2.720;2023-04-03T01:19:48;5.50;;;0.80;;
75016;SDS011;63577;39.766;2.720;2023-04-03T01:22:25;3.80;;;0.80;;
75016;SDS011;63577;39.766;2.720;2023-04-03T01:24:54;5.20;;;0.90;;
75016;SDS011;63577;39.766;2.720;2023-04-03T01:27:20;5.10;;;0.90;;
75016;SDS011;63577;39.766;2.720;2023-04-03T01:29:46;3.60;;;0.70;;
75016;SDS011;63577;39.766;2.720;2023-04-03T01:32:12;5.60;;;0.80;;
75016;SDS011;63577;39.766;2.720;2023-04-03T01:34:37;4.70;;;0.80;;
75016;SDS011;63577;39.766;2.720;2023-04-03T01:37:02;5.00;;;0.90;;
75016;SDS011;63577;39.766;2.720;2023-04-03T01:39:28;3.90;;;0.70;;
75016;SDS011;63577;39.766;2.720;2023-04-03T01:41:53;8.00;;;0.70;;
75016;SDS011;63577;39.766;2.720;2023-04-03T01:44:18;3.90;;;0.90;;
75016;SDS011;63577;39.766;2.720;2023-04-03T01:46:44;6.00;;;0.90;;
75016;SDS011;63577;39.766;2.720;2023-04-03T01:49:09;4.20;;;0.80;;
75016;SDS011;63577;39.766;2.720;2023-04-03T01:51:34;6.20;;;1.00;;
75016;SDS011;63577;39.766;2.720;2023-04-03T01:54:00;4.30;;;0.90;;
75016;SDS011;63577;39.766;2.720;2023-04-03T01:56:25;4.20;;;0.80;;
75016;SDS011;63577;39.766;2.720;2023-04-03T01:58:51;6.00;;;0.80;;
75016;SDS011;63577;39.766;2.720;2023-04-03T02:01:17;4.10;;;0.80;;
75016;SDS011;63577;39.766;2.720;2023-04-03T02:03:42;4.30;;;0.90;;
75016;SDS011;63577;39.766;2.720;2023-04-03T02:06:07;5.00;;;0.90;;
75016;SDS011;63577;39.766;2.720;2023-04-03T02:08:33;6.00;;;1.10;;
75016;SDS011;63577;39.766;2.720;2023-04-03T02:10:58;5.80;;;1.00;;
75016;SDS011;63577;39.766;2.720;2023-04-03T02:13:23;8.40;;;1.00;;
75016;SDS011;63577;39.766;2.720;2023-04-03T02:15:49;4.60;;;0.90;;
75016;SDS011;63577;39.766;2.720;2023-04-03T02:18:14;7.40;;;1.20;;
75016;SDS011;63577;39.766;2.720;2023-04-03T02:20:40;6.10;;;1.10;;
75016;SDS011;63577;39.766;2.720;2023-04-03T02:23:05;5.30;;;1.00;;
75016;SDS011;63577;39.766;2.720;2023-04-03T02:25:31;5.60;;;1.10;;
75016;SDS011;63577;39.766;2.720;2023-04-03T02:27:57;5.60;;;1.20;;
75016;SDS011;63577;39.766;2.720;2023-04-03T02:30:23;6.30;;;0.90;;
75016;SDS011;63577;39.766;2.720;2023-04-03T02:32:48;6.40;;;1.10;;
75016;SDS011;63577;39.766;2.720;2023-04-03T02:35:13;4.00;;;0.80;;
75016;SDS011;63577;39.766;2.720;2023-04-03T02:37:38;4.80;;;1.00;;
75016;SDS011;63577;39.766;2.720;2023-04-03T02:40:04;8.60;;;1.00;;
75016;SDS011;63577;39.766;2.720;2023-04-03T02:42:31;3.80;;;1.10;;
75016;SDS011;63577;39.766;2.720;2023-04-03T02:44:56;6.50;;;0.90;;
75016;SDS011;63577;39.766;2.720;2023-04-03T02:47:21;6.10;;;1.30;;
75016;SDS011;63577;39.766;2.720;2023-04-03T02:49:47;5.50;;;0.80;;
75016;SDS011;63577;39.766;2.720;2023-04-03T02:52:13;5.40;;;1.00;;
75016;SDS011;63577;39.766;2.720;2023-04-03T02:54:38;6.30;;;1.20;;
75016;SDS011;63577;39.766;2.720;2023-04-03T02:57:03;5.30;;;0.80;;
75016;SDS011;63577;39.766;2.720;2023-04-03T02:59:29;4.80;;;0.90;;
75016;SDS011;63577;39.766;2.720;2023-04-03T03:01:54;5.90;;;0.90;;
75016;SDS011;63577;39.766;2.720;2023-04-03T03:04:20;7.10;;;1.00;;
75016;SDS011;63577;39.766;2.720;2023-04-03T03:06:46;4.70;;;0.90;;
75016;SDS011;63577;39.766;2.720;2023-04-03T03:09:12;5.50;;;1.10;;
75016;SDS011;63577;39.766;2.720;2023-04-03T03:11:38;3.50;;;0.90;;
75016;SDS011;63577;39.766;2.720;2023-04-03T03:14:04;3.40;;;0.70;;
75016;SDS011;63577;39.766;2.720;2023-04-03T03:16:29;6.30;;;0.90;;
75016;SDS011;63577;39.766;2.720;2023-04-03T03:18:54;3.80;;;0.80;;
75016;SDS011;63577;39.766;2.720;2023-04-03T03:21:20;4.40;;;1.00;;
75016;SDS011;63577;39.766;2.720;2023-04-03T03:23:46;6.40;;;1.00;;
75016;SDS011;63577;39.766;2.720;2023-04-03T03:26:11;4.90;;;0.80;;
75016;SDS011;63577;39.766;2.720;2023-04-03T03:28:37;3.40;;;0.70;;
75016;SDS011;63577;39.766;2.720;2023-04-03T03:31:03;6.20;;;1.00;;
75016;SDS011;63577;39.766;2.720;2023-04-03T03:33:29;6.90;;;0.80;;
75016;SDS011;63577;39.766;2.720;2023-04-03T03:35:54;6.40;;;1.10;;
75016;SDS011;63577;39.766;2.720;2023-04-03T03:38:20;3.70;;;0.80;;
75016;SDS011;63577;39.766;2.720;2023-04-03T03:40:49;5.70;;;0.80;;
75016;SDS011;63577;39.766;2.720;2023-04-03T03:43:15;4.80;;;0.90;;
75016;SDS011;63577;39.766;2.720;2023-04-03T03:45:40;5.60;;;1.00;;
75016;SDS011;63577;39.766;2.720;2023-04-03T03:48:06;5.80;;;1.00;;
75016;SDS011;63577;39.766;2.720;2023-04-03T03:50:31;5.60;;;1.00;;
75016;SDS011;63577;39.766;2.720;2023-04-03T03:52:57;5.60;;;0.80;;
75016;SDS011;63577;39.766;2.720;2023-04-03T03:55:22;3.90;;;0.80;;
75016;SDS011;63577;39.766;2.720;2023-04-03T03:57:47;5.50;;;0.90;;
75016;SDS011;63577;39.766;2.720;2023-04-03T04:00:13;6.00;;;0.80;;
75016;SDS011;63577;39.766;2.720;2023-04-03T04:02:38;3.10;;;0.90;;
75016;SDS011;63577;39.766;2.720;2023-04-03T04:05:04;5.40;;;1.00;;
75016;SDS011;63577;39.766;2.720;2023-04-03T04:07:29;4.30;;;0.70;;
75016;SDS011;63577;39.766;2.720;2023-04-03T04:09:55;4.00;;;0.80;;
75016;SDS011;63577;39.766;2.720;2023-04-03T04:12:20;4.90;;;1.00;;
75016;SDS011;63577;39.766;2.720;2023-04-03T04:14:46;6.20;;;1.30;;
75016;SDS011;63577;39.766;2.720;2023-04-03T04:17:15;4.90;;;0.80;;
75016;SDS011;63577;39.766;2.720;2023-04-03T04:19:40;7.40;;;0.90;;
75016;SDS011;63577;39.766;2.720;2023-04-03T04:22:06;6.80;;;0.80;;
75016;SDS011;63577;39.766;2.720;2023-04-03T04:24:31;4.20;;;0.80;;
75016;SDS011;63577;39.766;2.720;2023-04-03T04:26:56;3.30;;;0.80;;
75016;SDS011;63577;39.766;2.720;2023-04-03T04:29:22;4.80;;;0.70;;
75016;SDS011;63577;39.766;2.720;2023-04-03T04:31:47;4.60;;;0.90;;
75016;SDS011;63577;39.766;2.720;2023-04-03T04:34:13;3.20;;;0.80;;
75016;SDS011;63577;39.766;2.720;2023-04-03T04:36:38;4.10;;;0.90;;
75016;SDS011;63577;39.766;2.720;2023-04-03T04:39:04;4.10;;;0.70;;
75016;SDS011;63577;39.766;2.720;2023-04-03T04:41:30;3.70;;;0.80;;
75016;SDS011;63577;39.766;2.720;2023-04-03T04:43:56;5.10;;;0.80;;
75016;SDS011;63577;39.766;2.720;2023-04-03T04:46:21;8.60;;;1.10;;
75016;SDS011;63577;39.766;2.720;2023-04-03T04:48:46;3.70;;;0.80;;
75016;SDS011;63577;39.766;2.720;2023-04-03T04:51:13;5.20;;;0.90;;
75016;SDS011;63577;39.766;2.720;2023-04-03T04:53:39;6.00;;;0.70;;
75016;SDS011;63577;39.766;2.720;2023-04-03T04:56:04;3.80;;;0.70;;
75016;SDS011;63577;39.766;2.720;2023-04-03T04:58:30;4.20;;;1.00;;
75016;SDS011;63577;39.766;2.720;2023-04-03T05:00:59;2.10;;;0.70;;
75016;SDS011;63577;39.766;2.720;2023-04-03T05:03:25;4.70;;;0.70;;
75016;SDS011;63577;39.766;2.720;2023-04-03T05:05:50;5.10;;;1.00;;
75016;SDS011;63577;39.766;2.720;2023-04-03T05:08:15;4.60;;;0.90;;
75016;SDS011;63577;39.766;2.720;2023-04-03T05:10:41;7.30;;;0.90;;
75016;SDS011;63577;39.766;2.720;2023-04-03T05:13:07;5.30;;;0.70;;
75016;SDS011;63577;39.766;2.720;2023-04-03T05:15:32;3.00;;;0.50;;
75016;SDS011;63577;39.766;2.720;2023-04-03T05:17:58;5.60;;;0.80;;
75016;SDS011;63577;39.766;2.720;2023-04-03T05:20:24;5.50;;;0.90;;
75016;SDS011;63577;39.766;2.720;2023-04-03T05:22:50;5.90;;;0.80;;
75016;SDS011;63577;39.766;2.720;2023-04-03T05:25:15;4.90;;;1.10;;
75016;SDS011;63577;39.766;2.720;2023-04-03T05:27:41;3.80;;;0.80;;
75016;SDS011;63577;39.766;2.720;2023-04-03T05:30:06;3.90;;;0.80;;
75016;SDS011;63577;39.766;2.720;2023-04-03T05:32:32;4.80;;;0.90;;
75016;SDS011;63577;39.766;2.720;2023-04-03T05:34:57;5.00;;;1.10;;
75016;SDS011;63577;39.766;2.720;2023-04-03T05:37:23;5.00;;;0.80;;
75016;SDS011;63577;39.766;2.720;2023-04-03T05:39:48;4.90;;;0.90;;
75016;SDS011;63577;39.766;2.720;2023-04-03T05:42:13;4.70;;;1.00;;
75016;SDS011;63577;39.766;2.720;2023-04-03T05:44:39;4.60;;;0.90;;
75016;SDS011;63577;39.766;2.720;2023-04-03T05:47:05;6.00;;;0.90;;
75016;SDS011;63577;39.766;2.720;2023-04-03T05:49:31;4.80;;;1.00;;
75016;SDS011;63577;39.766;2.720;2023-04-03T05:51:56;5.10;;;1.00;;
75016;SDS011;63577;39.766;2.720;2023-04-03T05:54:23;3.90;;;0.70;;
75016;SDS011;63577;39.766;2.720;2023-04-03T05:56:49;4.40;;;0.80;;
75016;SDS011;63577;39.766;2.720;2023-04-03T05:59:15;6.30;;;0.90;;
75016;SDS011;63577;39.766;2.720;2023-04-03T06:01:40;3.30;;;0.80;;
75016;SDS011;63577;39.766;2.720;2023-04-03T06:04:05;4.40;;;0.80;;
75016;SDS011;63577;39.766;2.720;2023-04-03T06:06:44;4.80;;;1.40;;
75016;SDS011;63577;39.766;2.720;2023-04-03T06:11:35;4.80;;;0.90;;
75016;SDS011;63577;39.766;2.720;2023-04-03T06:14:00;3.30;;;0.80;;
75016;SDS011;63577;39.766;2.720;2023-04-03T06:16:26;3.30;;;0.90;;
75016;SDS011;63577;39.766;2.720;2023-04-03T06:18:51;8.00;;;1.10;;
75016;SDS011;63577;39.766;2.720;2023-04-03T06:21:17;5.60;;;1.20;;
75016;SDS011;63577;39.766;2.720;2023-04-03T06:23:42;5.20;;;1.20;;
75016;SDS011;63577;39.766;2.720;2023-04-03T06:26:07;4.70;;;1.30;;
75016;SDS011;63577;39.766;2.720;2023-04-03T06:28:33;5.60;;;1.20;;
75016;SDS011;63577;39.766;2.720;2023-04-03T06:30:58;5.30;;;1.70;;
75016;SDS011;63577;39.766;2.720;2023-04-03T06:33:24;9.50;;;4.00;;
75016;SDS011;63577;39.766;2.720;2023-04-03T06:35:49;23.40;;;13.40;;
75016;SDS011;63577;39.766;2.720;2023-04-03T06:38:14;38.10;;;19.40;;
75016;SDS011;63577;39.766;2.720;2023-04-03T06:40:40;30.70;;;17.00;;
75016;SDS011;63577;39.766;2.720;2023-04-03T06:43:05;25.90;;;14.50;;
75016;SDS011;63577;39.766;2.720;2023-04-03T06:45:31;14.30;;;6.60;;
75016;SDS011;63577;39.766;2.720;2023-04-03T06:47:56;14.60;;;7.70;;
75016;SDS011;63577;39.766;2.720;2023-04-03T06:50:21;24.40;;;11.50;;
75016;SDS011;63577;39.766;2.720;2023-04-03T06:52:47;22.40;;;11.70;;
75016;SDS011;63577;39.766;2.720;2023-04-03T06:55:12;25.70;;;13.10;;
75016;SDS011;63577;39.766;2.720;2023-04-03T06:57:38;27.80;;;13.10;;
75016;SDS011;63577;39.766;2.720;2023-04-03T07:00:04;34.80;;;18.30;;
75016;SDS011;63577;39.766;2.720;2023-04-03T07:02:29;37.00;;;17.50;;
75016;SDS011;63577;39.766;2.720;2023-04-03T07:04:55;32.70;;;14.40;;
75016;SDS011;63577;39.766;2.720;2023-04-03T07:07:21;31.70;;;13.90;;
75016;SDS011;63577;39.766;2.720;2023-04-03T07:09:46;30.00;;;14.70;;
75016;SDS011;63577;39.766;2.720;2023-04-03T07:12:13;31.90;;;14.00;;
75016;SDS011;63577;39.766;2.720;2023-04-03T07:14:38;22.20;;;10.60;;
75016;SDS011;63577;39.766;2.720;2023-04-03T07:17:04;18.90;;;8.10;;
75016;SDS011;63577;39.766;2.720;2023-04-03T07:19:29;13.40;;;6.10;;
75016;SDS011;63577;39.766;2.720;2023-04-03T07:21:56;10.20;;;4.20;;
75016;SDS011;63577;39.766;2.720;2023-04-03T07:24:22;9.40;;;4.20;;
75016;SDS011;63577;39.766;2.720;2023-04-03T07:26:51;10.00;;;4.40;;
75016;SDS011;63577;39.766;2.720;2023-04-03T07:29:17;11.80;;;5.20;;
75016;SDS011;63577;39.766;2.720;2023-04-03T07:31:42;12.90;;;6.10;;
75016;SDS011;63577;39.766;2.720;2023-04-03T07:34:10;14.60;;;7.00;;
75016;SDS011;63577;39.766;2.720;2023-04-03T07:36:35;18.10;;;8.70;;
75016;SDS011;63577;39.766;2.720;2023-04-03T07:39:01;14.40;;;7.30;;
75016;SDS011;63577;39.766;2.720;2023-04-03T07:41:26;19.00;;;9.80;;
75016;SDS011;63577;39.766;2.720;2023-04-03T07:43:51;11.30;;;5.80;;
75016;SDS011;63577;39.766;2.720;2023-04-03T07:46:18;11.40;;;4.40;;
75016;SDS011;63577;39.766;2.720;2023-04-03T07:48:43;9.50;;;3.60;;
75016;SDS011;63577;39.766;2.720;2023-04-03T07:51:10;11.30;;;4.20;;
75016;SDS011;63577;39.766;2.720;2023-04-03T07:53:35;13.00;;;4.90;;
75016;SDS011;63577;39.766;2.720;2023-04-03T07:56:01;15.30;;;5.10;;
75016;SDS011;63577;39.766;2.720;2023-04-03T07:58:27;11.40;;;3.80;;
75016;SDS011;63577;39.766;2.720;2023-04-03T08:00:53;9.70;;;3.60;;
75016;SDS011;63577;39.766;2.720;2023-04-03T08:03:18;7.50;;;2.60;;
75016;SDS011;63577;39.766;2.720;2023-04-03T08:05:44;11.30;;;3.20;;
75016;SDS011;63577;39.766;2.720;2023-04-03T08:08:11;9.10;;;2.60;;
75016;SDS011;63577;39.766;2.720;2023-04-03T08:10:37;7.70;;;2.60;;
75016;SDS011;63577;39.766;2.720;2023-04-03T08:13:03;10.60;;;2.60;;
75016;SDS011;63577;39.766;2.720;2023-04-03T08:15:29;7.70;;;2.10;;
75016;SDS011;63577;39.766;2.720;2023-04-03T08:17:55;8.10;;;1.80;;
75016;SDS011;63577;39.766;2.720;2023-04-03T08:20:20;9.40;;;1.90;;
75016;SDS011;63577;39.766;2.720;2023-04-03T08:22:46;8.80;;;1.90;;
75016;SDS011;63577;39.766;2.720;2023-04-03T08:25:11;9.60;;;2.20;;
75016;SDS011;63577;39.766;2.720;2023-04-03T08:27:36;5.70;;;1.60;;
75016;SDS011;63577;39.766;2.720;2023-04-03T08:30:03;8.90;;;1.90;;
75016;SDS011;63577;39.766;2.720;2023-04-03T08:32:29;6.20;;;1.60;;
75016;SDS011;63577;39.766;2.720;2023-04-03T08:34:54;9.10;;;1.90;;
75016;SDS011;63577;39.766;2.720;2023-04-03T08:37:19;10.60;;;2.10;;
75016;SDS011;63577;39.766;2.720;2023-04-03T08:39:45;6.70;;;1.80;;
75016;SDS011;63577;39.766;2.720;2023-04-03T08:42:32;6.30;;;1.70;;
75016;SDS011;63577;39.766;2.720;2023-04-03T08:45:12;6.50;;;1.70;;
75016;SDS011;63577;39.766;2.720;2023-04-03T08:48:00;7.60;;;1.80;;
75016;SDS011;63577;39.766;2.720;2023-04-03T08:50:31;6.50;;;1.80;;
75016;SDS011;63577;39.766;2.720;2023-04-03T08:52:59;9.30;;;1.70;;
75016;SDS011;63577;39.766;2.720;2023-04-03T08:55:28;9.30;;;2.30;;
75016;SDS011;63577;39.766;2.720;2023-04-03T08:58:04;8.90;;;1.90;;
75016;SDS011;63577;39.766;2.720;2023-04-03T09:00:34;12.90;;;2.30;;
75016;SDS011;63577;39.766;2.720;2023-04-03T09:03:02;9.60;;;2.80;;
75016;SDS011;63577;39.766;2.720;2023-04-03T09:05:42;10.90;;;1.80;;
75016;SDS011;63577;39.766;2.720;2023-04-03T09:10:40;9.90;;;2.00;;
75016;SDS011;63577;39.766;2.720;2023-04-03T09:13:13;8.30;;;1.60;;
75016;SDS011;63577;39.766;2.720;2023-04-03T09:15:43;7.80;;;1.60;;
75016;SDS011;63577;39.766;2.720;2023-04-03T09:18:16;8.00;;;1.50;;
75016;SDS011;63577;39.766;2.720;2023-04-03T09:23:40;7.80;;;1.40;;
75016;SDS011;63577;39.766;2.720;2023-04-03T09:26:09;8.70;;;1.30;;
75016;SDS011;63577;39.766;2.720;2023-04-03T09:28:37;7.20;;;1.00;;
75016;SDS011;63577;39.766;2.720;2023-04-03T09:31:06;7.00;;;1.30;;
75016;SDS011;63577;39.766;2.720;2023-04-03T09:33:38;8.70;;;1.20;;
75016;SDS011;63577;39.766;2.720;2023-04-03T09:36:04;6.50;;;1.20;;
75016;SDS011;63577;39.766;2.720;2023-04-03T09:38:31;7.80;;;1.50;;
75016;SDS011;63577;39.766;2.720;2023-04-03T09:41:07;9.80;;;1.60;;
75016;SDS011;63577;39.766;2.720;2023-04-03T09:43:33;6.60;;;1.40;;
75016;SDS011;63577;39.766;2.720;2023-04-03T09:49:04;8.90;;;3.00;;
75016;SDS011;63577;39.766;2.720;2023-04-03T09:51:30;8.40;;;2.20;;
75016;SDS011;63577;39.766;2.720;2023-04-03T09:53:57;10.40;;;2.60;;
75016;SDS011;63577;39.766;2.720;2023-04-03T09:56:24;9.40;;;2.00;;
75016;SDS011;63577;39.766;2.720;2023-04-03T09:58:51;13.50;;;1.80;;
75016;SDS011;63577;39.766;2.720;2023-04-03T10:01:37;15.10;;;2.60;;
75016;SDS011;63577;39.766;2.720;2023-04-03T10:04:07;10.20;;;2.10;;
75016;SDS011;63577;39.766;2.720;2023-04-03T10:08:59;10.20;;;2.50;;
75016;SDS011;63577;39.766;2.720;2023-04-03T10:11:26;13.70;;;2.70;;
75016;SDS011;63577;39.766;2.720;2023-04-03T10:16:23;12.10;;;2.20;;
75016;SDS011;63577;39.766;2.720;2023-04-03T10:21:35;10.20;;;2.40;;
75016;SDS011;63577;39.766;2.720;2023-04-03T10:24:09;12.20;;;2.60;;
75016;SDS011;63577;39.766;2.720;2023-04-03T10:27:01;10.90;;;2.60;;
75016;SDS011;63577;39.766;2.720;2023-04-03T10:29:36;10.80;;;2.00;;
75016;SDS011;63577;39.766;2.720;2023-04-03T10:32:19;12.50;;;1.90;;
75016;SDS011;63577;39.766;2.720;2023-04-03T10:34:47;7.30;;;1.50;;
75016;SDS011;63577;39.766;2.720;2023-04-03T10:47:13;8.80;;;1.40;;
75016;SDS011;63577;39.766;2.720;2023-04-03T10:49:43;7.20;;;1.60;;
75016;SDS011;63577;39.766;2.720;2023-04-03T10:57:35;9.30;;;1.50;;
75016;SDS011;63577;39.766;2.720;2023-04-03T11:00:03;10.80;;;1.60;;
75016;SDS011;63577;39.766;2.720;2023-04-03T11:04:59;7.90;;;1.50;;
75016;SDS011;63577;39.766;2.720;2023-04-03T11:07:26;11.10;;;2.00;;
75016;SDS011;63577;39.766;2.720;2023-04-03T11:12:42;11.20;;;1.30;;
75016;SDS011;63577;39.766;2.720;2023-04-03T11:15:16;7.10;;;1.50;;
75016;SDS011;63577;39.766;2.720;2023-04-03T11:18:26;10.20;;;1.40;;
75016;SDS011;63577;39.766;2.720;2023-04-03T11:20:31;8.10;;;1.40;;
75016;SDS011;63577;39.766;2.720;2023-04-03T11:25:43;7.50;;;1.50;;
75016;SDS011;63577;39.766;2.720;2023-04-03T11:28:12;8.40;;;1.70;;
75016;SDS011;63577;39.766;2.720;2023-04-03T11:30:44;9.20;;;1.90;;
75016;SDS011;63577;39.766;2.720;2023-04-03T11:35:51;11.60;;;2.10;;
75016;SDS011;63577;39.766;2.720;2023-04-03T11:38:19;8.20;;;1.50;;
75016;SDS011;63577;39.766;2.720;2023-04-03T11:43:30;7.20;;;1.50;;
75016;SDS011;63577;39.766;2.720;2023-04-03T11:46:03;7.90;;;1.60;;
75016;SDS011;63577;39.766;2.720;2023-04-03T11:51:00;9.90;;;1.70;;
75016;SDS011;63577;39.766;2.720;2023-04-03T11:53:35;11.40;;;1.70;;
75016;SDS011;63577;39.766;2.720;2023-04-03T11:56:02;11.60;;;2.10;;
75016;SDS011;63577;39.766;2.720;2023-04-03T11:58:29;13.30;;;2.00;;
75016;SDS011;63577;39.766;2.720;2023-04-03T12:00:59;9.40;;;1.80;;
75016;SDS011;63577;39.766;2.720;2023-04-03T12:08:30;8.40;;;1.50;;
75016;SDS011;63577;39.766;2.720;2023-04-03T12:13:34;7.70;;;1.50;;
75016;SDS011;63577;39.766;2.720;2023-04-03T12:16:00;8.00;;;1.60;;
75016;SDS011;63577;39.766;2.720;2023-04-03T12:24:16;8.40;;;1.80;;
75016;SDS011;63577;39.766;2.720;2023-04-03T12:31:54;10.20;;;1.80;;
75016;SDS011;63577;39.766;2.720;2023-04-03T12:35:03;9.00;;;1.30;;
75016;SDS011;63577;39.766;2.720;2023-04-03T12:37:16;7.20;;;1.50;;
75016;SDS011;63577;39.766;2.720;2023-04-03T12:42:35;8.10;;;1.40;;
75016;SDS011;63577;39.766;2.720;2023-04-03T12:45:21;6.40;;;1.40;;
75016;SDS011;63577;39.766;2.720;2023-04-03T12:47:48;8.60;;;1.40;;
75016;SDS011;63577;39.766;2.720;2023-04-03T12:50:18;6.10;;;1.20;;
75016;SDS011;63577;39.766;2.720;2023-04-03T12:52:47;6.20;;;1.30;;
75016;SDS011;63577;39.766;2.720;2023-04-03T12:55:16;5.80;;;1.30;;
75016;SDS011;63577;39.766;2.720;2023-04-03T12:57:42;6.50;;;1.00;;
75016;SDS011;63577;39.766;2.720;2023-04-03T13:02:52;5.90;;;1.40;;
75016;SDS011;63577;39.766;2.720;2023-04-03T13:05:18;5.70;;;1.10;;
75016;SDS011;63577;39.766;2.720;2023-04-03T13:07:48;6.00;;;1.30;;
75016;SDS011;63577;39.766;2.720;2023-04-03T13:10:17;7.20;;;1.70;;
75016;SDS011;63577;39.766;2.720;2023-04-03T13:12:53;7.10;;;1.30;;
75016;SDS011;63577;39.766;2.720;2023-04-03T13:17:44;5.00;;;1.10;;
75016;SDS011;63577;39.766;2.720;2023-04-03T13:23:06;4.80;;;0.90;;
75016;SDS011;63577;39.766;2.720;2023-04-03T13:25:31;6.30;;;1.00;;
75016;SDS011;63577;39.766;2.720;2023-04-03T13:27:57;6.00;;;0.90;;
75016;SDS011;63577;39.766;2.720;2023-04-03T13:32:52;4.80;;;0.90;;
75016;SDS011;63577;39.766;2.720;2023-04-03T13:35:29;4.50;;;1.10;;
75016;SDS011;63577;39.766;2.720;2023-04-03T13:37:56;6.60;;;1.20;;
75016;SDS011;63577;39.766;2.720;2023-04-03T13:40:22;6.50;;;1.40;;
75016;SDS011;63577;39.766;2.720;2023-04-03T13:42:57;6.70;;;1.30;;
75016;SDS011;63577;39.766;2.720;2023-04-03T13:45:29;5.80;;;1.30;;
75016;SDS011;63577;39.766;2.720;2023-04-03T13:48:16;5.90;;;1.20;;
75016;SDS011;63577;39.766;2.720;2023-04-03T13:51:00;9.30;;;1.50;;
75016;SDS011;63577;39.766;2.720;2023-04-03T13:53:26;7.40;;;1.30;;
75016;SDS011;63577;39.766;2.720;2023-04-03T13:58:28;7.20;;;1.60;;
75016;SDS011;63577;39.766;2.720;2023-04-03T14:03:27;5.50;;;1.00;;
75016;SDS011;63577;39.766;2.720;2023-04-03T14:05:54;5.20;;;0.90;;
75016;SDS011;63577;39.766;2.720;2023-04-03T14:08:20;4.40;;;0.90;;
75016;SDS011;63577;39.766;2.720;2023-04-03T14:10:45;4.90;;;1.10;;
75016;SDS011;63577;39.766;2.720;2023-04-03T14:13:15;4.60;;;0.90;;
75016;SDS011;63577;39.766;2.720;2023-04-03T14:15:42;6.40;;;1.10;;
75016;SDS011;63577;39.766;2.720;2023-04-03T14:18:14;7.40;;;1.10;;
75016;SDS011;63577;39.766;2.720;2023-04-03T14:20:40;7.00;;;1.10;;
75016;SDS011;63577;39.766;2.720;2023-04-03T14:23:05;5.60;;;1.00;;
75016;SDS011;63577;39.766;2.720;2023-04-03T14:25:31;5.50;;;1.00;;
75016;SDS011;63577;39.766;2.720;2023-04-03T14:27:57;6.10;;;1.20;;
75016;SDS011;63577;39.766;2.720;2023-04-03T14:30:24;6.10;;;1.20;;
75016;SDS011;63577;39.766;2.720;2023-04-03T14:32:49;5.60;;;0.90;;
75016;SDS011;63577;39.766;2.720;2023-04-03T14:35:16;6.10;;;1.00;;
75016;SDS011;63577;39.766;2.720;2023-04-03T14:37:41;5.80;;;1.40;;
75016;SDS011;63577;39.766;2.720;2023-04-03T14:40:07;6.70;;;1.10;;
75016;SDS011;63577;39.766;2.720;2023-04-03T14:42:35;5.00;;;1.00;;
75016;SDS011;63577;39.766;2.720;2023-04-03T14:45:02;5.90;;;1.30;;
75016;SDS011;63577;39.766;2.720;2023-04-03T14:47:28;5.20;;;1.20;;
75016;SDS011;63577;39.766;2.720;2023-04-03T14:49:54;4.70;;;1.10;;
75016;SDS011;63577;39.766;2.720;2023-04-03T14:52:31;5.70;;;1.20;;
75016;SDS011;63577;39.766;2.720;2023-04-03T14:54:56;4.80;;;1.10;;
75016;SDS011;63577;39.766;2.720;2023-04-03T14:57:23;4.50;;;1.00;;
75016;SDS011;63577;39.766;2.720;2023-04-03T14:59:49;4.30;;;1.00;;
75016;SDS011;63577;39.766;2.720;2023-04-03T15:04:46;5.80;;;1.30;;
75016;SDS011;63577;39.766;2.720;2023-04-03T15:07:11;4.00;;;0.90;;
75016;SDS011;63577;39.766;2.720;2023-04-03T15:09:36;4.10;;;1.00;;
75016;SDS011;63577;39.766;2.720;2023-04-03T15:12:02;5.80;;;1.30;;
75016;SDS011;63577;39.766;2.720;2023-04-03T15:14:27;6.50;;;1.50;;
75016;SDS011;63577;39.766;2.720;2023-04-03T15:16:53;4.70;;;0.90;;
75016;SDS011;63577;39.766;2.720;2023-04-03T15:19:18;5.10;;;1.20;;
75016;SDS011;63577;39.766;2.720;2023-04-03T15:21:43;5.90;;;1.20;;
75016;SDS011;63577;39.766;2.720;2023-04-03T15:24:09;4.60;;;1.00;;
75016;SDS011;63577;39.766;2.720;2023-04-03T15:26:35;6.50;;;2.20;;
75016;SDS011;63577;39.766;2.720;2023-04-03T15:29:01;7.50;;;1.40;;
75016;SDS011;63577;39.766;2.720;2023-04-03T15:31:26;4.90;;;0.90;;
75016;SDS011;63577;39.766;2.720;2023-04-03T15:33:52;5.00;;;1.00;;
75016;SDS011;63577;39.766;2.720;2023-04-03T15:36:17;4.00;;;1.00;;
75016;SDS011;63577;39.766;2.720;2023-04-03T15:38:42;3.90;;;1.00;;
75016;SDS011;63577;39.766;2.720;2023-04-03T15:41:08;5.40;;;1.20;;
75016;SDS011;63577;39.766;2.720;2023-04-03T15:43:33;5.60;;;1.10;;
75016;SDS011;63577;39.766;2.720;2023-04-03T15:46:00;5.30;;;0.90;;
75016;SDS011;63577;39.766;2.720;2023-04-03T15:48:26;5.10;;;1.70;;
75016;SDS011;63577;39.766;2.720;2023-04-03T15:50:52;6.50;;;1.60;;
75016;SDS011;63577;39.766;2.720;2023-04-03T15:53:17;5.10;;;1.10;;
75016;SDS011;63577;39.766;2.720;2023-04-03T15:55:43;4.90;;;1.10;;
75016;SDS011;63577;39.766;2.720;2023-04-03T15:58:08;6.50;;;1.20;;
75016;SDS011;63577;39.766;2.720;2023-04-03T16:00:33;5.00;;;1.20;;
75016;SDS011;63577;39.766;2.720;2023-04-03T16:03:02;4.10;;;1.10;;
75016;SDS011;63577;39.766;2.720;2023-04-03T16:05:29;4.40;;;1.00;;
75016;SDS011;63577;39.766;2.720;2023-04-03T16:07:55;4.90;;;1.10;;
75016;SDS011;63577;39.766;2.720;2023-04-03T16:10:20;4.00;;;1.10;;
75016;SDS011;63577;39.766;2.720;2023-04-03T16:12:46;4.40;;;1.10;;
75016;SDS011;63577;39.766;2.720;2023-04-03T16:15:11;3.30;;;1.00;;
75016;SDS011;63577;39.766;2.720;2023-04-03T16:17:37;3.80;;;1.10;;
75016;SDS011;63577;39.766;2.720;2023-04-03T16:20:04;3.90;;;1.30;;
75016;SDS011;63577;39.766;2.720;2023-04-03T16:22:30;4.70;;;1.30;;